createdAt,value
2023-01-08T00:02:01.681Z,75.10
2023-01-08T00:04:28.478Z,75.30
2023-01-08T00:06:55.322Z,75.50
2023-01-08T00:09:22.116Z,75.60
2023-01-08T00:11:50.096Z,75.70
2023-01-08T00:14:16.913Z,75.90
2023-01-08T00:16:43.859Z,75.90
2023-01-08T00:19:12.472Z,76.20
2023-01-08T00:21:39.639Z,76.20
2023-01-08T00:24:06.842Z,76.30
2023-01-08T00:26:33.701Z,76.60
2023-01-08T00:29:00.606Z,76.60
2023-01-08T00:31:27.454Z,76.70
2023-01-08T00:33:54.229Z,76.80
2023-01-08T00:36:21.099Z,76.70
2023-01-08T00:38:48.220Z,76.80
2023-01-08T00:41:16.045Z,76.80
2023-01-08T00:43:42.886Z,76.80
2023-01-08T00:46:10.258Z,76.80
2023-01-08T00:48:38.927Z,76.90
2023-01-08T00:51:07.866Z,76.90
2023-01-08T00:53:35.415Z,77.00
2023-01-08T00:56:03.926Z,77.00
2023-01-08T00:58:31.078Z,77.10
2023-01-08T01:00:58.020Z,77.10
2023-01-08T01:03:24.960Z,77.30
2023-01-08T01:06:00.831Z,77.30
2023-01-08T01:08:27.725Z,77.00
2023-01-08T01:10:54.629Z,76.70
2023-01-08T01:13:21.450Z,76.20
2023-01-08T01:15:58.144Z,75.90
2023-01-08T01:18:25.469Z,75.60
2023-01-08T01:20:52.467Z,75.70
2023-01-08T01:23:19.445Z,75.20
2023-01-08T01:25:46.201Z,75.30
2023-01-08T01:28:13.258Z,75.40
2023-01-08T01:30:40.255Z,75.40
2023-01-08T01:33:07.235Z,75.50
2023-01-08T01:35:34.022Z,75.40
2023-01-08T01:38:00.826Z,75.60
2023-01-08T01:40:27.809Z,75.60
2023-01-08T01:42:55.048Z,75.40
2023-01-08T01:45:31.226Z,75.50
2023-01-08T01:48:10.503Z,75.70
2023-01-08T01:50:50.571Z,75.90
2023-01-08T01:53:31.025Z,76.00
2023-01-08T01:55:58.738Z,75.90
2023-01-08T01:58:31.467Z,76.10
2023-01-08T02:01:02.738Z,76.30
2023-01-08T02:03:33.684Z,76.40
2023-01-08T02:06:06.873Z,76.40
2023-01-08T02:08:57.250Z,76.50
2023-01-08T02:11:35.503Z,76.50
2023-01-08T02:14:10.317Z,76.70
2023-01-08T02:16:51.074Z,76.70
2023-01-08T02:19:44.796Z,76.90
2023-01-08T02:22:36.747Z,76.90
2023-01-08T02:25:37.967Z,76.90
2023-01-08T02:28:09.642Z,77.00
2023-01-08T02:30:36.543Z,76.90
2023-01-08T02:33:03.361Z,77.00
2023-01-08T02:35:44.803Z,77.10
2023-01-08T02:38:15.975Z,77.10
2023-01-08T02:40:49.975Z,77.10
2023-01-08T02:43:26.376Z,77.20
2023-01-08T02:45:58.552Z,77.00
2023-01-08T02:48:35.268Z,77.10
2023-01-08T02:51:16.934Z,77.20
2023-01-08T02:53:59.353Z,77.20
2023-01-08T02:56:34.445Z,77.20
2023-01-08T02:59:05.279Z,77.10
2023-01-08T03:01:35.084Z,77.10
2023-01-08T03:04:10.370Z,77.00
2023-01-08T03:06:38.476Z,77.10
2023-01-08T03:09:06.249Z,77.20
2023-01-08T03:11:46.303Z,77.10
2023-01-08T03:14:22.895Z,77.20
2023-01-08T03:16:59.023Z,77.20
2023-01-08T03:19:47.332Z,77.30
2023-01-08T03:22:17.329Z,77.30
2023-01-08T03:24:48.323Z,77.20
2023-01-08T03:27:21.139Z,77.30
2023-01-08T03:29:52.023Z,77.40
2023-01-08T03:32:22.079Z,77.40
2023-01-08T03:34:50.679Z,77.40
2023-01-08T03:37:22.761Z,77.30
2023-01-08T03:40:07.667Z,77.30
2023-01-08T03:42:34.559Z,77.30
2023-01-08T03:45:02.020Z,77.30
2023-01-08T03:47:31.903Z,77.20
2023-01-08T03:50:02.801Z,77.20
2023-01-08T03:52:32.180Z,77.00
2023-01-08T03:54:59.416Z,76.90
2023-01-08T03:57:26.305Z,76.70
2023-01-08T03:59:53.292Z,76.60
2023-01-08T04:02:20.255Z,76.20
2023-01-08T04:04:48.426Z,76.10
2023-01-08T04:07:15.377Z,75.90
2023-01-08T04:09:42.144Z,75.80
2023-01-08T04:12:09.046Z,75.70
2023-01-08T04:14:35.876Z,75.60
2023-01-08T04:17:02.664Z,75.60
2023-01-08T04:19:29.475Z,75.50
2023-01-08T04:21:56.326Z,75.30
2023-01-08T04:24:23.258Z,75.10
2023-01-08T04:26:50.163Z,75.00
2023-01-08T04:29:17.039Z,75.00
2023-01-08T04:31:43.877Z,75.00
2023-01-08T04:34:10.684Z,74.80
2023-01-08T04:36:37.624Z,74.90
2023-01-08T04:39:05.341Z,75.00
2023-01-08T04:41:32.075Z,74.90
2023-01-08T04:43:58.877Z,74.80
2023-01-08T04:46:25.820Z,74.90
2023-01-08T04:48:52.652Z,74.90
2023-01-08T04:51:19.475Z,74.70
2023-01-08T04:53:47.681Z,74.80
2023-01-08T04:56:14.517Z,74.80
2023-01-08T04:58:41.276Z,74.80
2023-01-08T05:01:25.923Z,74.70
2023-01-08T05:03:58.003Z,74.80
2023-01-08T05:06:25.894Z,75.00
2023-01-08T05:08:52.713Z,75.10
2023-01-08T05:11:19.529Z,75.10
2023-01-08T05:13:50.806Z,75.10
2023-01-08T05:16:18.528Z,75.10
2023-01-08T05:18:45.762Z,75.20
2023-01-08T05:21:13.640Z,75.20
2023-01-08T05:23:43.707Z,75.20
2023-01-08T05:26:10.805Z,75.10
2023-01-08T05:28:38.957Z,75.20
2023-01-08T05:31:05.815Z,75.20
2023-01-08T05:33:32.731Z,75.20
2023-01-08T05:35:59.517Z,75.20
2023-01-08T05:38:26.379Z,75.20
2023-01-08T05:40:53.907Z,75.20
2023-01-08T05:43:20.683Z,75.20
2023-01-08T05:45:47.675Z,75.10
2023-01-08T05:48:14.404Z,75.20
2023-01-08T05:50:41.340Z,75.10
2023-01-08T05:53:09.506Z,75.20
2023-01-08T05:55:36.634Z,75.20
2023-01-08T05:58:05.308Z,75.30
2023-01-08T06:00:33.035Z,75.30
2023-01-08T06:03:00.098Z,75.30
2023-01-08T06:05:27.247Z,75.30
2023-01-08T06:07:54.059Z,75.40
2023-01-08T06:10:21.362Z,75.40
2023-01-08T06:12:48.260Z,75.40
2023-01-08T06:15:15.363Z,75.50
2023-01-08T06:17:42.398Z,75.50
2023-01-08T06:20:09.959Z,75.50
2023-01-08T06:22:36.955Z,75.60
2023-01-08T06:25:04.324Z,75.60
2023-01-08T06:27:31.250Z,75.60
2023-01-08T06:29:58.079Z,75.50
2023-01-08T06:32:24.841Z,75.50
2023-01-08T06:34:51.626Z,75.60
2023-01-08T06:37:18.557Z,75.60
2023-01-08T06:39:45.446Z,75.60
2023-01-08T06:42:12.218Z,75.70
2023-01-08T06:44:39.037Z,75.60
2023-01-08T06:47:05.818Z,75.60
2023-01-08T06:49:32.687Z,75.60
2023-01-08T06:51:59.580Z,75.60
2023-01-08T06:54:26.360Z,75.60
2023-01-08T06:56:54.411Z,75.60
2023-01-08T06:59:22.578Z,75.70
2023-01-08T07:01:49.820Z,75.60
2023-01-08T07:04:18.499Z,75.60
2023-01-08T07:06:46.158Z,75.70
2023-01-08T07:09:14.484Z,75.80
2023-01-08T07:11:44.161Z,75.70
2023-01-08T07:14:11.467Z,75.60
2023-01-08T07:16:38.549Z,75.60
2023-01-08T07:19:05.510Z,75.60
2023-01-08T07:21:32.450Z,75.60
2023-01-08T07:23:59.622Z,75.60
2023-01-08T07:26:26.819Z,75.60
2023-01-08T07:28:53.672Z,75.70
2023-01-08T07:31:20.578Z,75.60
2023-01-08T07:33:47.735Z,75.60
2023-01-08T07:36:15.683Z,75.70
2023-01-08T07:38:43.041Z,75.70
2023-01-08T07:41:11.797Z,75.60
2023-01-08T07:43:38.595Z,75.50
2023-01-08T07:46:05.717Z,75.50
2023-01-08T07:48:32.578Z,75.60
2023-01-08T07:51:03.854Z,75.50
2023-01-08T07:53:30.757Z,75.50
2023-01-08T07:56:11.083Z,75.40
2023-01-08T07:58:38.702Z,75.50
2023-01-08T08:01:10.688Z,75.50
2023-01-08T08:03:39.112Z,75.50
2023-01-08T08:06:06.291Z,75.40
2023-01-08T08:08:33.159Z,75.30
2023-01-08T08:11:00.212Z,75.30
2023-01-08T08:13:27.452Z,75.30
2023-01-08T08:15:54.617Z,75.20
2023-01-08T08:18:21.612Z,75.10
2023-01-08T08:20:51.915Z,75.00
2023-01-08T08:23:18.950Z,75.00
2023-01-08T08:25:45.755Z,74.90
2023-01-08T08:28:12.964Z,74.90
2023-01-08T08:30:42.375Z,74.90
2023-01-08T08:33:09.776Z,75.10
2023-01-08T08:35:37.043Z,74.90
2023-01-08T08:38:04.320Z,74.90
2023-01-08T08:40:31.530Z,75.00
2023-01-08T08:43:00.383Z,74.80
2023-01-08T08:45:28.914Z,74.90
2023-01-08T08:47:56.179Z,74.80
2023-01-08T08:50:23.699Z,74.90
2023-01-08T08:52:50.563Z,74.80
2023-01-08T08:55:18.218Z,74.80
2023-01-08T08:57:46.342Z,74.80
2023-01-08T09:00:14.765Z,74.60
2023-01-08T09:02:42.013Z,74.70
2023-01-08T09:05:09.358Z,74.60
2023-01-08T09:07:36.346Z,74.70
2023-01-08T09:10:03.924Z,74.60
2023-01-08T09:12:30.926Z,74.50
2023-01-08T09:14:57.880Z,74.50
2023-01-08T09:17:26.071Z,74.40
2023-01-08T09:19:53.377Z,74.10
2023-01-08T09:22:20.509Z,74.10
2023-01-08T09:24:47.463Z,74.00
2023-01-08T09:27:14.612Z,74.00
2023-01-08T09:29:41.542Z,73.80
2023-01-08T09:32:08.933Z,73.90
2023-01-08T09:34:39.004Z,73.90
2023-01-08T09:37:06.465Z,73.90
2023-01-08T09:39:33.748Z,73.80
2023-01-08T09:42:05.731Z,73.70
2023-01-08T09:44:41.753Z,73.40
2023-01-08T09:47:26.146Z,73.40
2023-01-08T09:49:59.125Z,73.50
2023-01-08T09:52:26.588Z,73.40
2023-01-08T09:54:53.503Z,73.60
2023-01-08T09:57:22.529Z,73.40
2023-01-08T09:59:50.001Z,73.40
2023-01-08T10:02:22.899Z,73.40
2023-01-08T10:04:54.968Z,73.50
2023-01-08T10:07:27.252Z,73.50
2023-01-08T10:09:55.987Z,73.20
2023-01-08T10:12:27.910Z,73.20
2023-01-08T10:15:02.512Z,73.30
2023-01-08T10:17:37.538Z,73.10
2023-01-08T10:20:23.009Z,73.10
2023-01-08T10:22:54.131Z,72.90
2023-01-08T10:25:24.399Z,73.00
2023-01-08T10:27:54.234Z,73.10
2023-01-08T10:30:28.738Z,72.90
2023-01-08T10:32:57.662Z,72.70
2023-01-08T10:35:34.143Z,72.70
2023-01-08T10:38:02.056Z,72.70
2023-01-08T10:40:47.552Z,72.30
2023-01-08T10:43:21.127Z,72.30
2023-01-08T10:45:59.736Z,72.20
2023-01-08T10:48:47.688Z,72.00
2023-01-08T10:51:21.785Z,72.00
2023-01-08T10:53:48.835Z,71.90
2023-01-08T10:56:42.844Z,72.20
2023-01-08T10:59:23.842Z,71.80
2023-01-08T11:01:54.091Z,71.30
2023-01-08T11:04:32.717Z,71.10
2023-01-08T11:07:05.725Z,70.90
2023-01-08T11:09:45.726Z,70.80
2023-01-08T11:12:33.095Z,70.40
2023-01-08T11:15:00.658Z,70.30
2023-01-08T11:17:28.144Z,70.20
2023-01-08T11:19:55.941Z,70.50
2023-01-08T11:22:24.809Z,70.30
2023-01-08T11:24:53.112Z,69.90
2023-01-08T11:27:38.105Z,69.60
2023-01-08T11:30:18.059Z,69.60
2023-01-08T11:33:10.060Z,69.40
2023-01-08T11:35:42.562Z,69.50
2023-01-08T11:38:13.080Z,69.40
2023-01-08T11:40:52.195Z,69.10
2023-01-08T11:43:57.250Z,69.30
2023-01-08T11:46:32.853Z,69.20
2023-01-08T11:49:37.356Z,68.80
2023-01-08T11:52:28.686Z,68.90
2023-01-08T11:54:55.425Z,68.50
2023-01-08T11:57:41.465Z,69.10
2023-01-08T12:00:30.625Z,69.10
2023-01-08T12:03:03.946Z,68.00
2023-01-08T12:05:47.994Z,68.00
2023-01-08T12:08:38.521Z,68.10
2023-01-08T12:11:14.212Z,68.80
2023-01-08T12:14:14.146Z,69.30
2023-01-08T12:16:59.932Z,69.20
2023-01-08T12:20:00.887Z,69.20
2023-01-08T12:22:55.989Z,69.10
2023-01-08T12:25:36.968Z,67.80
2023-01-08T12:28:12.617Z,67.70
2023-01-08T12:30:48.224Z,67.20
2023-01-08T12:33:35.710Z,67.00
2023-01-08T12:36:09.392Z,67.30
2023-01-08T12:39:00.513Z,67.70
2023-01-08T12:41:28.883Z,67.60
2023-01-08T12:44:04.359Z,67.60
2023-01-08T12:46:35.929Z,67.10
2023-01-08T12:49:05.879Z,66.90
2023-01-08T12:52:12.279Z,66.50
2023-01-08T12:54:41.799Z,65.90
2023-01-08T12:57:18.055Z,66.10
2023-01-08T13:00:17.674Z,65.50
2023-01-08T13:02:44.885Z,65.10
2023-01-08T13:05:19.029Z,65.30
2023-01-08T13:07:48.979Z,65.80
2023-01-08T13:10:40.536Z,63.90
2023-01-08T13:13:24.760Z,62.00
2023-01-08T13:15:51.726Z,60.70
2023-01-08T13:18:20.922Z,60.70
2023-01-08T13:20:58.848Z,60.10
2023-01-08T13:23:27.901Z,59.40
2023-01-08T13:25:59.753Z,58.60
2023-01-08T13:28:35.634Z,57.50
2023-01-08T13:31:20.944Z,57.30
2023-01-08T13:33:49.341Z,56.90
2023-01-08T13:36:17.922Z,56.60
2023-01-08T13:38:45.438Z,57.00
2023-01-08T13:41:32.408Z,56.60
2023-01-08T13:44:16.098Z,57.80
2023-01-08T13:46:44.317Z,58.70
2023-01-08T13:49:27.977Z,59.20
2023-01-08T13:51:54.811Z,60.10
2023-01-08T13:54:30.169Z,60.60
2023-01-08T13:57:04.432Z,60.70
2023-01-08T13:59:43.626Z,61.20
2023-01-08T14:02:33.373Z,61.00
2023-01-08T14:05:02.698Z,61.30
2023-01-08T14:07:30.792Z,61.20
2023-01-08T14:10:08.523Z,61.70
2023-01-08T14:12:35.416Z,62.10
2023-01-08T14:15:04.392Z,62.20
2023-01-08T14:17:32.617Z,62.30
2023-01-08T14:19:59.945Z,62.20
2023-01-08T14:22:31.675Z,62.10
2023-01-08T14:25:03.240Z,62.30
2023-01-08T14:27:31.447Z,62.40
2023-01-08T14:29:58.935Z,62.50
2023-01-08T14:32:29.274Z,62.20
2023-01-08T14:34:58.677Z,62.40
2023-01-08T14:37:25.639Z,62.30
2023-01-08T14:39:54.674Z,62.10
2023-01-08T14:42:42.257Z,62.20
2023-01-08T14:45:23.928Z,62.60
2023-01-08T14:47:54.929Z,61.80
2023-01-08T14:50:31.266Z,60.00
2023-01-08T14:53:03.966Z,58.30
2023-01-08T14:55:32.921Z,56.90
2023-01-08T14:57:59.893Z,56.10
2023-01-08T15:00:31.475Z,56.90
2023-01-08T15:02:58.504Z,57.80
2023-01-08T15:05:31.335Z,59.30
2023-01-08T15:08:02.600Z,60.40
2023-01-08T15:10:41.595Z,61.10
2023-01-08T15:13:35.729Z,61.60
2023-01-08T15:16:08.836Z,62.10
2023-01-08T15:18:43.322Z,62.30
2023-01-08T15:21:10.799Z,62.60
2023-01-08T15:23:43.039Z,62.70
2023-01-08T15:26:14.411Z,63.00
2023-01-08T15:28:57.522Z,63.10
2023-01-08T15:31:35.640Z,63.20
2023-01-08T15:34:02.536Z,63.40
2023-01-08T15:36:29.289Z,63.50
2023-01-08T15:38:56.134Z,63.50
2023-01-08T15:41:43.272Z,63.50
2023-01-08T15:44:12.841Z,63.70
2023-01-08T15:46:39.668Z,63.70
2023-01-08T15:49:06.632Z,63.70
2023-01-08T15:51:34.890Z,64.00
2023-01-08T15:54:02.855Z,64.20
2023-01-08T15:56:29.760Z,64.40
2023-01-08T15:58:56.668Z,64.40
2023-01-08T16:01:24.011Z,64.70
2023-01-08T16:03:50.814Z,64.70
2023-01-08T16:06:17.769Z,64.80
2023-01-08T16:08:46.320Z,65.00
2023-01-08T16:11:19.915Z,65.00
2023-01-08T16:13:46.983Z,65.10
2023-01-08T16:16:15.726Z,65.10
2023-01-08T16:18:43.164Z,65.10
2023-01-08T16:21:11.015Z,65.20
2023-01-08T16:23:39.665Z,65.10
2023-01-08T16:26:07.868Z,65.30
2023-01-08T16:28:38.842Z,65.30
2023-01-08T16:31:07.202Z,65.40
2023-01-08T16:33:34.762Z,65.60
2023-01-08T16:36:10.918Z,65.50
2023-01-08T16:38:38.172Z,65.70
2023-01-08T16:41:06.057Z,65.80
2023-01-08T16:43:40.128Z,65.80
2023-01-08T16:46:15.184Z,65.90
2023-01-08T16:48:43.033Z,66.10
2023-01-08T16:51:11.093Z,66.20
2023-01-08T16:53:38.150Z,66.20
2023-01-08T16:56:05.691Z,66.40
2023-01-08T16:58:34.910Z,66.50
2023-01-08T17:01:04.033Z,66.50
2023-01-08T17:03:30.959Z,66.60
2023-01-08T17:06:01.892Z,66.60
2023-01-08T17:08:28.906Z,66.70
2023-01-08T17:10:55.752Z,66.80
2023-01-08T17:13:22.614Z,66.90
2023-01-08T17:15:53.038Z,66.90
2023-01-08T17:18:20.244Z,67.00
2023-01-08T17:20:53.840Z,66.90
2023-01-08T17:23:20.731Z,67.10
2023-01-08T17:25:47.940Z,67.20
2023-01-08T17:28:14.752Z,67.20
2023-01-08T17:30:41.788Z,67.20
2023-01-08T17:33:08.817Z,67.20
2023-01-08T17:35:35.571Z,67.10
2023-01-08T17:38:02.305Z,67.20
2023-01-08T17:40:29.085Z,67.10
2023-01-08T17:42:56.331Z,67.20
2023-01-08T17:45:23.452Z,67.00
2023-01-08T17:47:50.353Z,66.90
2023-01-08T17:50:18.417Z,67.00
2023-01-08T17:52:45.301Z,67.10
2023-01-08T17:55:12.752Z,67.20
2023-01-08T17:57:39.615Z,67.30
2023-01-08T18:00:07.244Z,67.20
2023-01-08T18:02:34.148Z,67.20
2023-01-08T18:05:01.030Z,67.10
2023-01-08T18:07:27.802Z,67.10
2023-01-08T18:09:57.105Z,67.10
2023-01-08T18:12:23.926Z,67.10
2023-01-08T18:14:50.845Z,67.20
2023-01-08T18:17:18.113Z,67.20
2023-01-08T18:19:45.838Z,67.20
2023-01-08T18:22:12.660Z,67.30
2023-01-08T18:24:39.605Z,67.30
2023-01-08T18:27:06.443Z,67.50
2023-01-08T18:29:33.747Z,67.60
2023-01-08T18:32:01.815Z,67.60
2023-01-08T18:34:28.808Z,67.80
2023-01-08T18:36:55.709Z,68.00
2023-01-08T18:39:22.639Z,68.10
2023-01-08T18:42:08.475Z,68.20
2023-01-08T18:44:35.293Z,68.30
2023-01-08T18:47:02.055Z,68.30
2023-01-08T18:49:28.953Z,68.50
2023-01-08T18:51:55.962Z,68.50
2023-01-08T18:54:22.795Z,68.60
2023-01-08T18:56:51.112Z,68.80
2023-01-08T18:59:18.282Z,68.90
2023-01-08T19:01:45.188Z,68.90
2023-01-08T19:04:18.849Z,68.90
2023-01-08T19:06:47.783Z,68.90
2023-01-08T19:09:15.449Z,69.00
2023-01-08T19:11:42.615Z,69.00
2023-01-08T19:14:11.347Z,69.10
2023-01-08T19:16:38.285Z,69.10
2023-01-08T19:19:05.281Z,69.20
2023-01-08T19:21:32.923Z,69.20
2023-01-08T19:24:00.449Z,69.30
2023-01-08T19:26:27.257Z,69.40
2023-01-08T19:28:54.137Z,69.40
2023-01-08T19:31:27.445Z,69.40
2023-01-08T19:34:03.308Z,69.40
2023-01-08T19:36:30.358Z,69.40
2023-01-08T19:38:57.854Z,69.50
2023-01-08T19:41:43.506Z,69.50
2023-01-08T19:44:10.418Z,69.50
2023-01-08T19:46:37.682Z,69.50
2023-01-08T19:49:05.099Z,69.50
2023-01-08T19:51:33.201Z,69.50
2023-01-08T19:54:01.142Z,69.50
2023-01-08T19:56:29.829Z,69.60
2023-01-08T19:58:57.484Z,69.60
2023-01-08T20:01:26.687Z,69.70
2023-01-08T20:03:55.156Z,69.50
2023-01-08T20:06:24.589Z,69.60
2023-01-08T20:08:54.325Z,69.60
2023-01-08T20:11:22.553Z,69.60
2023-01-08T20:13:50.576Z,69.70
2023-01-08T20:16:19.972Z,69.70
2023-01-08T20:18:48.578Z,69.80
2023-01-08T20:21:23.169Z,69.80
2023-01-08T20:24:03.048Z,69.90
2023-01-08T20:26:31.958Z,69.90
2023-01-08T20:28:59.733Z,69.90
2023-01-08T20:31:32.682Z,69.80
2023-01-08T20:34:01.575Z,69.80
2023-01-08T20:36:31.609Z,69.80
2023-01-08T20:39:05.086Z,69.80
2023-01-08T20:41:32.460Z,69.90
2023-01-08T20:43:59.541Z,69.80
2023-01-08T20:46:28.707Z,69.80
2023-01-08T20:48:59.885Z,69.90
2023-01-08T20:51:27.378Z,69.90
2023-01-08T20:53:54.164Z,69.80
2023-01-08T20:56:21.228Z,69.90
2023-01-08T20:58:49.511Z,69.80
2023-01-08T21:01:20.108Z,69.80
2023-01-08T21:03:48.643Z,69.80
2023-01-08T21:06:19.563Z,69.80
2023-01-08T21:08:53.562Z,69.90
2023-01-08T21:11:21.355Z,69.90
2023-01-08T21:13:48.590Z,69.90
2023-01-08T21:16:29.580Z,70.00
2023-01-08T21:18:59.333Z,70.00
2023-01-08T21:21:36.844Z,70.10
2023-01-08T21:24:07.174Z,70.10
2023-01-08T21:26:34.785Z,70.20
2023-01-08T21:29:08.994Z,70.30
2023-01-08T21:31:36.998Z,70.40
2023-01-08T21:34:08.683Z,70.50
2023-01-08T21:36:36.324Z,70.60
2023-01-08T21:39:03.676Z,70.60
2023-01-08T21:41:49.554Z,70.60
2023-01-08T21:44:37.557Z,70.80
2023-01-08T21:47:10.565Z,70.90
2023-01-08T21:49:37.552Z,70.90
2023-01-08T21:52:24.104Z,71.00
2023-01-08T21:54:52.094Z,71.10
2023-01-08T21:57:19.257Z,71.20
2023-01-08T21:59:49.171Z,71.30
